Time;durP1;ratioP1;P1;durP2;ratioP2;P2;SDS_P1;SDS_P2;PMS_P1;PMS_P2;Temp;Humidity;BMP_temperature;BMP_pressure;BME280_temperature;BME280_humidity;BME280_pressure;Samples;Min_cycle;Max_cycle;Signal;HPM_P1;HPM_P2
2021/12/17 00:00:50;;;;;;;;;;;;;;;;;;2064509;28;19918;-83
2021/12/17 00:04:25;;;;;;;;;;;;;;;;;;2073239;28;20326;-84
2021/12/17 00:05:42;;;;;;;;;;;;;;;;;;2072828;28;20012;-83
2021/12/17 00:06:47;;;;;;;;;;;;;;;;;;2065455;28;20404;-84
2021/12/17 00:07:48;;;;;;;;;;;;;;;;;;2066770;28;19937;-84
2021/12/17 00:08:49;;;;;;;;;;;;;;;;;;2074814;28;19957;-83
2021/12/17 00:09:52;;;;;;;;;;;;;;;;;;2074700;28;19914;-82
2021/12/17 00:10:52;;;;;;;;;;;;;;;;;;2074708;28;19921;-83
2021/12/17 00:11:53;;;;;;;;;;;;;;;;;;2074665;28;19921;-83
2021/12/17 00:12:53;;;;;;;;;;;;;;;;;;2074878;28;19992;-84
2021/12/17 00:13:55;;;;;;;;;;;;;;;;;;2066102;28;19913;-84
2021/12/17 00:14:57;;;;;;;;;;;;;;;;;;2066351;28;19914;-84
2021/12/17 00:15:58;;;;;;;;;;;;;;;;;;2074679;28;19913;-84
2021/12/17 00:17:00;;;;;;;;;;;;;;;;;;2074699;28;20339;-85
2021/12/17 00:18:10;;;;;;;;;;;;;;;;;;2074946;28;20063;-83
2021/12/17 00:19:32;;;;;;;;;;;;;;;;;;2075028;28;20240;-83
2021/12/17 00:49:24;;;;;;;;;;;;;;;;;;2067768;28;19913;-80
2021/12/17 00:52:00;;;;;;;;;;;;;;;;;;2074629;28;19913;-80
2021/12/17 00:53:05;;;;;;;;;;;;;;;;;;2073978;28;19913;-79
2021/12/17 00:54:09;;;;;;;;;;;;;;;;;;2065933;28;19921;-79
2021/12/17 00:55:09;;;;;;;;;;;;;;;;;;2066179;28;19925;-80
2021/12/17 00:56:10;;;;;;;;;;;;;;;;;;2065581;28;19914;-79
2021/12/17 00:57:18;;;;;;;;;;;;;;;;;;2065863;28;19914;-79
2021/12/17 00:58:18;;;;;;;;;;;;;;;;;;2065785;28;20381;-79
2021/12/17 00:59:18;;;;;;;;;;;;;;;;;;2065868;28;19914;-80
2021/12/17 01:00:20;;;;;;;;;;;;;;;;;;2073829;28;19913;-79
2021/12/17 01:01:21;;;;;;;;;;;;;;;;;;2065800;28;20286;-79
2021/12/17 01:02:26;;;;;;;;;;;;;;;;;;2065797;28;19914;-79
2021/12/17 01:03:26;;;;;;;;;;;;;;;;;;2074390;28;20008;-78
2021/12/17 01:04:27;;;;;;;;;;;;;;;;;;2074475;28;19914;-78
2021/12/17 01:05:29;;;;;;;;;;;;;;;;;;2065600;28;20004;-77
2021/12/17 01:06:29;;;;;;;;;;;;;;;;;;2065906;28;20008;-78
2021/12/17 01:07:31;;;;;;;;;;;;;;;;;;2074298;28;19940;-79
2021/12/17 01:08:31;;;;;;;;;;;;;;;;;;2074259;28;19913;-79
2021/12/17 01:09:32;;;;;;;;;;;;;;;;;;2073672;28;20404;-79
2021/12/17 01:10:37;;;;;;;;;;;;;;;;;;2073868;28;19928;-79
2021/12/17 01:11:37;;;;;;;;;;;;;;;;;;2074371;28;19924;-79
2021/12/17 01:12:38;;;;;;;;;;;;;;;;;;2074254;28;19928;-80
2021/12/17 01:13:40;;;;;;;;;;;;;;;;;;2074175;28;19960;-79
2021/12/17 01:14:41;;;;;;;;;;;;;;;;;;2065740;28;20001;-79
2021/12/17 01:15:42;;;;;;;;;;;;;;;;;;2065636;28;19913;-79
2021/12/17 01:16:42;;;;;;;;;;;;;;;;;;2074318;28;19925;-80
2021/12/17 01:17:45;;;;;;;;;;;;;;;;;;2073611;28;20369;-79
2021/12/17 01:18:59;;;;;;;;;;;;;;;;;;2065110;28;19918;-80
2021/12/17 01:20:19;;;;;;;;;;;;;;;;;;2067757;28;19917;-80
2021/12/17 01:24:54;;;;;;;;;;;;;;;;;;2074352;28;20008;-80
2021/12/17 01:36:16;;;;;;;;;;;;;;;;;;2074108;28;19913;-80
2021/12/17 01:42:24;;;;;;;;;;;;;;;;;;2074042;28;20402;-79
2021/12/17 01:43:24;;;;;;;;;;;;;;;;;;2074097;28;19925;-80
2021/12/17 01:44:27;;;;;;;;;;;;;;;;;;2073959;28;20042;-80
2021/12/17 01:45:31;;;;;;;;;;;;;;;;;;2065473;28;19924;-79
2021/12/17 01:46:33;;;;;;;;;;;;;;;;;;2066028;28;19963;-80
2021/12/17 01:47:33;;;;;;;;;;;;;;;;;;2074077;28;19913;-79
2021/12/17 01:48:55;;;;;;;;;;;;;;;;;;2073927;28;19925;-80
2021/12/17 01:56:53;;;;;;;;;;;;;;;;;;2074045;28;19913;-78
2021/12/17 02:00:44;;;;;;;;;;;;;;;;;;2056903;28;20283;-78
2021/12/17 02:01:44;;;;;;;;;;;;;;;;;;2070165;28;19913;-81
2021/12/17 02:02:52;;;;;;;;;;;;;;;;;;2073759;28;19983;-80
2021/12/17 02:03:53;;;;;;;;;;;;;;;;;;2073866;28;19971;-79
2021/12/17 02:04:53;;;;;;;;;;;;;;;;;;2073856;28;19975;-79
2021/12/17 02:05:53;;;;;;;;;;;;;;;;;;2073264;28;19914;-80
2021/12/17 02:06:54;;;;;;;;;;;;;;;;;;2073445;28;19913;-80
2021/12/17 02:07:57;;;;;;;;;;;;;;;;;;2065207;28;19941;-79
2021/12/17 02:09:00;;;;;;;;;;;;;;;;;;2065654;28;19961;-79
2021/12/17 02:19:48;;;;;;;;;;;;;;;;;;2073950;28;19914;-80
2021/12/17 02:28:55;;;;;;;;;;;;;;;;;;2048735;29;19915;-79
2021/12/17 02:30:14;;;;;;;;;;;;;;;;;;2059031;28;19980;-79
2021/12/17 02:32:17;;;;;;;;;;;;;;;;;;2073691;28;19913;-79
2021/12/17 02:33:18;;;;;;;;;;;;;;;;;;2073617;28;19913;-79
2021/12/17 02:35:46;;;;;;;;;;;;;;;;;;2050377;28;19946;-80
2021/12/17 02:36:48;;;;;;;;;;;;;;;;;;2073532;28;19924;-78
2021/12/17 02:37:49;;;;;;;;;;;;;;;;;;2073720;28;19917;-76
2021/12/17 02:38:50;;;;;;;;;;;;;;;;;;2073572;28;19921;-79
2021/12/17 02:46:07;;;;;;;;;;;;;;;;;;2073740;28;19914;-79
2021/12/17 02:47:07;;;;;;;;;;;;;;;;;;2073577;28;19941;-79
2021/12/17 02:48:18;;;;;;;;;;;;;;;;;;2064799;28;19937;-79
2021/12/17 02:49:18;;;;;;;;;;;;;;;;;;2059015;28;19918;-79
2021/12/17 02:50:19;;;;;;;;;;;;;;;;;;2073528;28;19922;-79
2021/12/17 02:51:22;;;;;;;;;;;;;;;;;;2073512;28;19913;-78
2021/12/17 02:52:26;;;;;;;;;;;;;;;;;;2073570;28;19924;-80
2021/12/17 02:53:27;;;;;;;;;;;;;;;;;;2064987;28;19913;-80
2021/12/17 02:54:28;;;;;;;;;;;;;;;;;;2065128;28;19925;-80
2021/12/17 02:55:31;;;;;;;;;;;;;;;;;;2073324;28;19917;-80
2021/12/17 02:56:31;;;;;;;;;;;;;;;;;;2073349;28;20020;-79
2021/12/17 02:57:32;;;;;;;;;;;;;;;;;;2073376;28;19975;-79
2021/12/17 02:58:34;;;;;;;;;;;;;;;;;;2073475;28;19917;-79
2021/12/17 02:59:35;;;;;;;;;;;;;;;;;;2073462;28;19924;-78
2021/12/17 03:00:36;;;;;;;;;;;;;;;;;;2073394;28;20000;-80
2021/12/17 03:01:37;;;;;;;;;;;;;;;;;;2073419;28;20131;-79
2021/12/17 03:02:39;;;;;;;;;;;;;;;;;;2073474;28;19985;-78
2021/12/17 03:03:40;;;;;;;;;;;;;;;;;;2064777;28;19914;-77
2021/12/17 03:04:41;;;;;;;;;;;;;;;;;;2064908;28;19924;-79
2021/12/17 03:05:42;;;;;;;;;;;;;;;;;;2073328;28;20329;-79
2021/12/17 03:06:43;;;;;;;;;;;;;;;;;;2073463;28;19953;-79
2021/12/17 03:07:47;;;;;;;;;;;;;;;;;;2073447;28;19944;-79
2021/12/17 03:08:47;;;;;;;;;;;;;;;;;;2073326;28;19909;-78
2021/12/17 03:10:04;;;;;;;;;;;;;;;;;;2073588;28;20382;-78
2021/12/17 03:11:05;;;;;;;;;;;;;;;;;;2073470;28;19918;-77
2021/12/17 03:12:09;;;;;;;;;;;;;;;;;;2073391;28;19914;-81
2021/12/17 03:13:10;;;;;;;;;;;;;;;;;;2064678;28;20437;-80
2021/12/17 03:14:11;;;;;;;;;;;;;;;;;;2064731;28;19914;-78
2021/12/17 03:15:35;;;;;;;;;;;;;;;;;;2064710;28;19924;-79
2021/12/17 03:16:42;;;;;;;;;;;;;;;;;;2073339;28;19914;-80
2021/12/17 03:24:05;;;;;;;;;;;;;;;;;;2073436;28;19914;-80
2021/12/17 03:25:05;;;;;;;;;;;;;;;;;;2064652;28;20355;-80
2021/12/17 03:26:11;;;;;;;;;;;;;;;;;;2064786;28;19914;-80
2021/12/17 03:27:11;;;;;;;;;;;;;;;;;;2073361;28;19913;-80
2021/12/17 03:28:11;;;;;;;;;;;;;;;;;;2073394;28;19913;-78
2021/12/17 03:29:12;;;;;;;;;;;;;;;;;;2073222;28;19971;-80
2021/12/17 03:30:12;;;;;;;;;;;;;;;;;;2073387;28;20294;-78
2021/12/17 03:31:12;;;;;;;;;;;;;;;;;;2073238;28;19913;-80
2021/12/17 03:32:13;;;;;;;;;;;;;;;;;;2065344;28;19918;-79
2021/12/17 03:33:13;;;;;;;;;;;;;;;;;;2072591;28;20318;-79
2021/12/17 03:34:18;;;;;;;;;;;;;;;;;;2073067;28;19941;-78
2021/12/17 03:35:19;;;;;;;;;;;;;;;;;;2064622;28;19957;-81
2021/12/17 03:36:19;;;;;;;;;;;;;;;;;;2064711;28;19982;-80
2021/12/17 03:37:19;;;;;;;;;;;;;;;;;;2064559;28;19914;-81
2021/12/17 03:38:20;;;;;;;;;;;;;;;;;;2064778;28;20347;-77
2021/12/17 03:39:25;;;;;;;;;;;;;;;;;;2073271;28;19940;-80
2021/12/17 03:40:27;;;;;;;;;;;;;;;;;;2064686;28;19940;-79
2021/12/17 03:41:35;;;;;;;;;;;;;;;;;;2065323;28;19914;-79
2021/12/17 03:42:36;;;;;;;;;;;;;;;;;;2075026;28;19941;-80
2021/12/17 03:43:37;;;;;;;;;;;;;;;;;;2066163;28;20351;-80
2021/12/17 03:44:37;;;;;;;;;;;;;;;;;;2066479;28;19920;-79
2021/12/17 03:45:38;;;;;;;;;;;;;;;;;;2066116;28;20071;-81
2021/12/17 03:46:38;;;;;;;;;;;;;;;;;;2066486;28;19925;-79
2021/12/17 03:47:38;;;;;;;;;;;;;;;;;;2074970;28;20273;-78
2021/12/17 03:48:40;;;;;;;;;;;;;;;;;;2074802;28;20286;-80
2021/12/17 03:49:42;;;;;;;;;;;;;;;;;;2075174;28;19925;-79
2021/12/17 03:50:43;;;;;;;;;;;;;;;;;;2074340;28;20354;-78
2021/12/17 03:51:50;;;;;;;;;;;;;;;;;;2074665;28;19945;-80
2021/12/17 03:52:50;;;;;;;;;;;;;;;;;;2074927;28;19914;-78
2021/12/17 03:53:53;;;;;;;;;;;;;;;;;;2074915;28;19913;-80
2021/12/17 03:54:53;;;;;;;;;;;;;;;;;;2075074;28;19914;-78
2021/12/17 03:55:53;;;;;;;;;;;;;;;;;;2074276;28;19956;-80
2021/12/17 03:56:54;;;;;;;;;;;;;;;;;;2074421;28;20357;-79
2021/12/17 03:57:58;;;;;;;;;;;;;;;;;;2066364;28;19953;-79
2021/12/17 03:58:58;;;;;;;;;;;;;;;;;;2066738;28;19954;-80
2021/12/17 03:59:59;;;;;;;;;;;;;;;;;;2074831;28;19924;-80
2021/12/17 04:00:59;;;;;;;;;;;;;;;;;;2074811;28;20392;-79
2021/12/17 04:01:59;;;;;;;;;;;;;;;;;;2074415;28;19996;-79
2021/12/17 04:02:59;;;;;;;;;;;;;;;;;;2074329;28;20390;-81
2021/12/17 04:04:00;;;;;;;;;;;;;;;;;;2066158;28;19918;-79
2021/12/17 04:05:00;;;;;;;;;;;;;;;;;;2066283;28;20375;-80
2021/12/17 04:06:03;;;;;;;;;;;;;;;;;;2074703;28;19917;-79
2021/12/17 04:07:03;;;;;;;;;;;;;;;;;;2074872;28;19913;-79
2021/12/17 04:08:04;;;;;;;;;;;;;;;;;;2074278;28;19913;-79
2021/12/17 04:09:04;;;;;;;;;;;;;;;;;;2074237;28;19913;-79
2021/12/17 04:10:05;;;;;;;;;;;;;;;;;;2074481;28;20358;-79
2021/12/17 04:11:07;;;;;;;;;;;;;;;;;;2074802;28;20007;-78
2021/12/17 04:12:12;;;;;;;;;;;;;;;;;;2066244;28;19940;-80
2021/12/17 04:13:36;;;;;;;;;;;;;;;;;;2058806;28;20242;-80
2021/12/17 04:14:41;;;;;;;;;;;;;;;;;;2074275;28;20007;-80
2021/12/17 04:15:44;;;;;;;;;;;;;;;;;;2074513;28;19914;-79
2021/12/17 04:16:46;;;;;;;;;;;;;;;;;;2074718;28;19913;-80
2021/12/17 04:17:53;;;;;;;;;;;;;;;;;;2074715;28;19913;-79
2021/12/17 04:18:54;;;;;;;;;;;;;;;;;;2074730;28;20113;-80
2021/12/17 04:19:54;;;;;;;;;;;;;;;;;;2074663;28;20015;-80
2021/12/17 04:20:54;;;;;;;;;;;;;;;;;;2074709;28;19924;-80
2021/12/17 04:21:55;;;;;;;;;;;;;;;;;;2074661;28;20281;-79
2021/12/17 04:22:55;;;;;;;;;;;;;;;;;;2074700;28;20282;-80
2021/12/17 04:23:55;;;;;;;;;;;;;;;;;;2074739;28;20252;-80
2021/12/17 04:24:56;;;;;;;;;;;;;;;;;;2074794;28;20044;-80
2021/12/17 04:25:56;;;;;;;;;;;;;;;;;;2074537;28;19984;-79
2021/12/17 04:26:56;;;;;;;;;;;;;;;;;;2074686;28;20409;-79
2021/12/17 04:27:56;;;;;;;;;;;;;;;;;;2074070;28;20345;-79
2021/12/17 04:28:57;;;;;;;;;;;;;;;;;;2074147;28;19924;-80
2021/12/17 04:29:58;;;;;;;;;;;;;;;;;;2074548;28;20300;-80
2021/12/17 04:30:58;;;;;;;;;;;;;;;;;;2074753;28;19965;-79
2021/12/17 04:31:58;;;;;;;;;;;;;;;;;;2074541;28;20326;-79
2021/12/17 04:32:59;;;;;;;;;;;;;;;;;;2074609;28;19924;-78
2021/12/17 04:33:59;;;;;;;;;;;;;;;;;;2074427;28;19982;-80
2021/12/17 04:34:59;;;;;;;;;;;;;;;;;;2074585;28;20370;-77
2021/12/17 04:36:00;;;;;;;;;;;;;;;;;;2074412;28;20003;-78
2021/12/17 04:37:00;;;;;;;;;;;;;;;;;;2066020;28;19914;-77
2021/12/17 04:38:03;;;;;;;;;;;;;;;;;;2065911;28;19914;-78
2021/12/17 04:39:04;;;;;;;;;;;;;;;;;;2074617;28;20198;-78
2021/12/17 04:40:05;;;;;;;;;;;;;;;;;;2074489;28;19914;-78
2021/12/17 04:43:12;;;;;;;;;;;;;;;;;;2049533;29;19938;-78
2021/12/17 04:45:13;;;;;;;;;;;;;;;;;;2074748;28;19920;-79
2021/12/17 04:57:46;;;;;;;;;;;;;;;;;;2074503;28;20347;-79
2021/12/17 04:58:47;;;;;;;;;;;;;;;;;;2074406;28;19924;-81
2021/12/17 04:59:47;;;;;;;;;;;;;;;;;;2074427;28;20296;-79
2021/12/17 05:00:48;;;;;;;;;;;;;;;;;;2065883;28;19922;-79
2021/12/17 05:01:48;;;;;;;;;;;;;;;;;;2065916;28;19918;-80
2021/12/17 05:02:51;;;;;;;;;;;;;;;;;;2065857;28;19924;-80
2021/12/17 05:03:52;;;;;;;;;;;;;;;;;;2073821;28;19914;-80
2021/12/17 05:04:53;;;;;;;;;;;;;;;;;;2073999;28;19918;-80
2021/12/17 05:05:53;;;;;;;;;;;;;;;;;;2074187;28;20462;-79
2021/12/17 05:06:54;;;;;;;;;;;;;;;;;;2065666;28;19953;-80
2021/12/17 05:07:59;;;;;;;;;;;;;;;;;;2065758;28;19913;-80
2021/12/17 05:09:08;;;;;;;;;;;;;;;;;;2074004;28;19913;-79
2021/12/17 05:20:19;;;;;;;;;;;;;;;;;;2074343;28;20400;-79
2021/12/17 05:20:50;;;;;;;;;;;;;;;;;;2066031;28;19921;-79
2021/12/17 05:21:50;;;;;;;;;;;;;;;;;;2074271;28;19920;-78
2021/12/17 05:22:56;;;;;;;;;;;;;;;;;;2074231;28;20385;-78
2021/12/17 05:23:56;;;;;;;;;;;;;;;;;;2065642;28;19925;-80
2021/12/17 05:24:57;;;;;;;;;;;;;;;;;;2065844;28;20001;-80
2021/12/17 05:25:58;;;;;;;;;;;;;;;;;;2074215;28;19918;-79
2021/12/17 05:26:59;;;;;;;;;;;;;;;;;;2074396;28;19929;-79
2021/12/17 05:28:02;;;;;;;;;;;;;;;;;;2074258;28;20283;-79
2021/12/17 05:29:03;;;;;;;;;;;;;;;;;;2074148;28;20259;-79
2021/12/17 05:30:03;;;;;;;;;;;;;;;;;;2065407;28;19925;-80
2021/12/17 05:31:04;;;;;;;;;;;;;;;;;;2065638;28;19914;-80
2021/12/17 05:32:04;;;;;;;;;;;;;;;;;;2074210;28;20489;-79
2021/12/17 05:33:04;;;;;;;;;;;;;;;;;;2074121;28;20414;-79
2021/12/17 05:34:05;;;;;;;;;;;;;;;;;;2074154;28;20370;-80
2021/12/17 05:35:05;;;;;;;;;;;;;;;;;;2074027;28;19913;-79
2021/12/17 05:36:06;;;;;;;;;;;;;;;;;;2074061;28;20014;-80
2021/12/17 05:37:06;;;;;;;;;;;;;;;;;;2074066;28;20435;-79
2021/12/17 05:38:06;;;;;;;;;;;;;;;;;;2074009;28;20345;-80
2021/12/17 05:39:07;;;;;;;;;;;;;;;;;;2065301;28;19914;-79
2021/12/17 05:40:07;;;;;;;;;;;;;;;;;;2065499;28;19914;-79
2021/12/17 05:41:08;;;;;;;;;;;;;;;;;;2065379;28;19914;-79
2021/12/17 05:42:10;;;;;;;;;;;;;;;;;;2066047;28;19918;-80
2021/12/17 05:43:14;;;;;;;;;;;;;;;;;;2074076;28;20406;-84
2021/12/17 05:44:17;;;;;;;;;;;;;;;;;;2074127;28;19914;-84
2021/12/17 05:45:36;;;;;;;;;;;;;;;;;;2074040;28;20362;-85
2021/12/17 05:46:48;;;;;;;;;;;;;;;;;;2065419;28;19914;-86
2021/12/17 05:47:49;;;;;;;;;;;;;;;;;;2067044;28;19918;-86
2021/12/17 05:48:49;;;;;;;;;;;;;;;;;;2074089;28;19944;-86
2021/12/17 05:49:50;;;;;;;;;;;;;;;;;;2065134;28;19961;-86
2021/12/17 05:50:51;;;;;;;;;;;;;;;;;;2065376;28;19928;-86
2021/12/17 05:51:52;;;;;;;;;;;;;;;;;;2073877;28;19913;-84
2021/12/17 05:52:53;;;;;;;;;;;;;;;;;;2065377;28;19968;-83
2021/12/17 05:53:53;;;;;;;;;;;;;;;;;;2065178;28;19921;-84
2021/12/17 05:54:53;;;;;;;;;;;;;;;;;;2073342;28;19929;-83
2021/12/17 05:55:54;;;;;;;;;;;;;;;;;;2073340;28;20270;-83
2021/12/17 05:56:54;;;;;;;;;;;;;;;;;;2073652;28;19913;-86
2021/12/17 05:57:55;;;;;;;;;;;;;;;;;;2074047;28;19924;-85
2021/12/17 05:59:00;;;;;;;;;;;;;;;;;;2073882;28;19913;-85
2021/12/17 06:00:00;;;;;;;;;;;;;;;;;;2073913;28;20286;-85
2021/12/17 06:01:01;;;;;;;;;;;;;;;;;;2074014;28;19917;-82
2021/12/17 06:02:05;;;;;;;;;;;;;;;;;;2073859;28;19914;-85
2021/12/17 06:03:05;;;;;;;;;;;;;;;;;;2073891;28;19924;-85
2021/12/17 06:04:06;;;;;;;;;;;;;;;;;;2072740;28;19948;-85
2021/12/17 06:05:06;;;;;;;;;;;;;;;;;;2073427;28;19917;-85
2021/12/17 06:06:06;;;;;;;;;;;;;;;;;;2073278;28;19923;-86
2021/12/17 06:07:07;;;;;;;;;;;;;;;;;;2073917;28;20215;-85
2021/12/17 06:08:07;;;;;;;;;;;;;;;;;;2073290;28;19949;-85
2021/12/17 06:09:09;;;;;;;;;;;;;;;;;;2073544;28;19948;-85
2021/12/17 06:10:09;;;;;;;;;;;;;;;;;;2073659;28;20259;-86
2021/12/17 06:11:10;;;;;;;;;;;;;;;;;;2073838;28;20202;-85
2021/12/17 06:12:10;;;;;;;;;;;;;;;;;;2073549;28;19933;-86
2021/12/17 06:13:10;;;;;;;;;;;;;;;;;;2073726;28;20351;-84
2021/12/17 06:14:11;;;;;;;;;;;;;;;;;;2073764;28;19913;-84
2021/12/17 06:15:15;;;;;;;;;;;;;;;;;;2073838;28;20350;-85
2021/12/17 06:16:15;;;;;;;;;;;;;;;;;;2065029;28;19921;-84
2021/12/17 06:17:15;;;;;;;;;;;;;;;;;;2065375;28;20294;-84
2021/12/17 06:18:17;;;;;;;;;;;;;;;;;;2073589;28;19924;-83
2021/12/17 06:19:19;;;;;;;;;;;;;;;;;;2073764;28;19924;-84
2021/12/17 06:20:20;;;;;;;;;;;;;;;;;;2073769;28;19924;-85
2021/12/17 06:21:20;;;;;;;;;;;;;;;;;;2073826;28;19937;-84
2021/12/17 06:22:21;;;;;;;;;;;;;;;;;;2073732;28;20255;-83
2021/12/17 06:23:21;;;;;;;;;;;;;;;;;;2073644;28;20373;-84
2021/12/17 06:24:21;;;;;;;;;;;;;;;;;;2073589;28;19914;-84
2021/12/17 06:25:22;;;;;;;;;;;;;;;;;;2073218;28;19976;-83
2021/12/17 06:26:22;;;;;;;;;;;;;;;;;;2073371;28;19914;-84
2021/12/17 06:27:23;;;;;;;;;;;;;;;;;;2073782;28;19914;-82
2021/12/17 06:28:23;;;;;;;;;;;;;;;;;;2073717;28;20008;-84
2021/12/17 06:29:24;;;;;;;;;;;;;;;;;;2073671;28;19913;-83
2021/12/17 06:30:25;;;;;;;;;;;;;;;;;;2073659;28;20356;-85
2021/12/17 06:31:27;;;;;;;;;;;;;;;;;;2073676;28;20267;-83
2021/12/17 06:32:27;;;;;;;;;;;;;;;;;;2073668;28;19913;-83
2021/12/17 06:33:28;;;;;;;;;;;;;;;;;;2073635;28;20369;-84
2021/12/17 06:34:28;;;;;;;;;;;;;;;;;;2073187;28;20000;-82
2021/12/17 06:35:28;;;;;;;;;;;;;;;;;;2073148;28;19913;-81
2021/12/17 06:36:31;;;;;;;;;;;;;;;;;;2073742;28;19917;-80
2021/12/17 06:37:31;;;;;;;;;;;;;;;;;;2074014;28;19933;-82
2021/12/17 06:38:32;;;;;;;;;;;;;;;;;;2074170;28;20004;-83
2021/12/17 06:39:34;;;;;;;;;;;;;;;;;;2073716;28;19976;-83
2021/12/17 06:40:35;;;;;;;;;;;;;;;;;;2065103;28;20270;-84
2021/12/17 06:41:37;;;;;;;;;;;;;;;;;;2065075;28;20062;-85
2021/12/17 06:42:38;;;;;;;;;;;;;;;;;;2073673;28;19914;-82
2021/12/17 06:43:41;;;;;;;;;;;;;;;;;;2073493;28;20597;-83
2021/12/17 06:44:42;;;;;;;;;;;;;;;;;;2073797;28;20040;-84
2021/12/17 06:46:58;;;;;;;;;;;;;;;;;;2065570;28;19913;-85
2021/12/17 06:47:59;;;;;;;;;;;;;;;;;;2064687;28;20000;-83
2021/12/17 06:49:19;;;;;;;;;;;;;;;;;;2065075;28;20426;-83
2021/12/17 07:09:29;;;;;;;;;;;;;;;;;;2073677;28;19922;-84
2021/12/17 07:10:43;;;;;;;;;;;;;;;;;;2073873;28;20331;-83
2021/12/17 07:20:03;;;;;;;;;;;;;;;;;;2073892;28;20339;-84
2021/12/17 07:20:35;;;;;;;;;;;;;;;;;;2060267;28;19963;-84
2021/12/17 07:23:47;;;;;;;;;;;;;;;;;;2073628;28;19925;-84
2021/12/17 07:28:04;;;;;;;;;;;;;;;;;;2073089;28;20032;-86
2021/12/17 07:31:36;;;;;;;;;;;;;;;;;;2073473;28;19921;-82
2021/12/17 07:32:45;;;;;;;;;;;;;;;;;;2074851;28;20004;-84
2021/12/17 07:33:57;;;;;;;;;;;;;;;;;;2074429;28;20048;-84
2021/12/17 07:36:08;;;;;;;;;;;;;;;;;;2073325;28;19914;-85
2021/12/17 07:39:31;;;;;;;;;;;;;;;;;;2074005;28;19918;-82
2021/12/17 07:40:32;;;;;;;;;;;;;;;;;;2073881;28;20359;-84
2021/12/17 07:41:32;;;;;;;;;;;;;;;;;;2073137;28;19924;-84
2021/12/17 07:42:32;;;;;;;;;;;;;;;;;;2073106;28;20306;-84
2021/12/17 07:43:38;;;;;;;;;;;;;;;;;;2065250;28;19917;-84
2021/12/17 07:44:38;;;;;;;;;;;;;;;;;;2065390;28;20390;-83
2021/12/17 07:45:39;;;;;;;;;;;;;;;;;;2072833;28;19943;-85
2021/12/17 07:46:39;;;;;;;;;;;;;;;;;;2073389;28;19980;-85
2021/12/17 07:47:39;;;;;;;;;;;;;;;;;;2073351;28;20343;-85
2021/12/17 07:48:40;;;;;;;;;;;;;;;;;;2073314;28;20369;-85
2021/12/17 07:49:41;;;;;;;;;;;;;;;;;;2073384;28;19963;-86
2021/12/17 07:50:42;;;;;;;;;;;;;;;;;;2073174;28;20386;-82
2021/12/17 07:51:42;;;;;;;;;;;;;;;;;;2065129;28;19952;-83
2021/12/17 07:52:42;;;;;;;;;;;;;;;;;;2065353;28;20211;-83
2021/12/17 07:53:42;;;;;;;;;;;;;;;;;;2065100;28;19914;-83
2021/12/17 07:54:43;;;;;;;;;;;;;;;;;;2066132;28;20352;-84
2021/12/17 07:55:43;;;;;;;;;;;;;;;;;;2074227;28;19977;-81
2021/12/17 07:56:44;;;;;;;;;;;;;;;;;;2074293;28;19920;-85
2021/12/17 07:57:44;;;;;;;;;;;;;;;;;;2074758;28;19952;-83
2021/12/17 07:58:44;;;;;;;;;;;;;;;;;;2074852;28;19921;-84
2021/12/17 07:59:44;;;;;;;;;;;;;;;;;;2065502;28;20089;-84
2021/12/17 08:00:45;;;;;;;;;;;;;;;;;;2065553;28;19920;-84
2021/12/17 08:01:45;;;;;;;;;;;;;;;;;;2073605;28;19924;-84
2021/12/17 08:02:48;;;;;;;;;;;;;;;;;;2073827;28;19928;-84
2021/12/17 08:03:48;;;;;;;;;;;;;;;;;;2072636;28;19937;-84
2021/12/17 08:04:49;;;;;;;;;;;;;;;;;;2073201;28;19914;-86
2021/12/17 08:05:52;;;;;;;;;;;;;;;;;;2063963;28;19918;-84
2021/12/17 08:06:52;;;;;;;;;;;;;;;;;;2064976;28;20041;-83
2021/12/17 08:07:52;;;;;;;;;;;;;;;;;;2073758;28;19913;-84
2021/12/17 08:08:53;;;;;;;;;;;;;;;;;;2073221;28;19923;-85
2021/12/17 08:09:53;;;;;;;;;;;;;;;;;;2073082;28;20335;-83
2021/12/17 08:10:56;;;;;;;;;;;;;;;;;;2072952;28;19936;-83
2021/12/17 08:11:57;;;;;;;;;;;;;;;;;;2073325;28;19913;-81
2021/12/17 08:12:57;;;;;;;;;;;;;;;;;;2073045;28;19924;-84
2021/12/17 08:13:58;;;;;;;;;;;;;;;;;;2072983;28;19924;-83
2021/12/17 08:14:59;;;;;;;;;;;;;;;;;;2073228;28;19949;-82
2021/12/17 08:17:34;;;;;;;;;;;;;;;;;;2073243;28;19913;-84
2021/12/17 08:18:45;;;;;;;;;;;;;;;;;;2071625;28;19921;-84
2021/12/17 08:25:15;;;;;;;;;;;;;;;;;;2073288;28;20278;-85
2021/12/17 08:26:25;;;;;;;;;;;;;;;;;;2073099;28;19913;-85
2021/12/17 08:27:50;;;;;;;;;;;;;;;;;;2072996;28;20349;-85
2021/12/17 08:29:23;;;;;;;;;;;;;;;;;;2074214;28;19913;-85
2021/12/17 08:30:23;;;;;;;;;;;;;;;;;;2074095;28;19925;-85
2021/12/17 08:31:23;;;;;;;;;;;;;;;;;;2074705;28;19921;-85
2021/12/17 08:32:24;;;;;;;;;;;;;;;;;;2074515;28;20322;-84
2021/12/17 08:33:28;;;;;;;;;;;;;;;;;;2074172;28;19949;-84
2021/12/17 08:34:29;;;;;;;;;;;;;;;;;;2074065;28;19917;-86
2021/12/17 08:35:29;;;;;;;;;;;;;;;;;;2065899;28;20053;-85
2021/12/17 08:36:30;;;;;;;;;;;;;;;;;;2066025;28;19913;-86
2021/12/17 08:37:31;;;;;;;;;;;;;;;;;;2066087;28;19914;-80
2021/12/17 08:38:31;;;;;;;;;;;;;;;;;;2065947;28;19913;-92
2021/12/17 08:39:32;;;;;;;;;;;;;;;;;;2066004;28;20363;-82
2021/12/17 08:40:33;;;;;;;;;;;;;;;;;;2074517;28;19967;-84
2021/12/17 08:41:33;;;;;;;;;;;;;;;;;;2074752;28;20357;-83
2021/12/17 08:42:34;;;;;;;;;;;;;;;;;;2074472;28;19913;-84
2021/12/17 08:43:34;;;;;;;;;;;;;;;;;;2073957;28;19917;-82
2021/12/17 08:44:35;;;;;;;;;;;;;;;;;;2073705;28;19921;-85
2021/12/17 08:45:35;;;;;;;;;;;;;;;;;;2064895;28;19914;-84
2021/12/17 08:46:38;;;;;;;;;;;;;;;;;;2065909;28;19914;-80
2021/12/17 08:47:40;;;;;;;;;;;;;;;;;;2066011;28;19914;-85
2021/12/17 08:48:41;;;;;;;;;;;;;;;;;;2066319;28;19917;-84
2021/12/17 08:49:46;;;;;;;;;;;;;;;;;;2075154;28;20346;-85
2021/12/17 08:50:46;;;;;;;;;;;;;;;;;;2075802;28;20004;-83
2021/12/17 08:51:46;;;;;;;;;;;;;;;;;;2075215;28;20259;-83
2021/12/17 08:52:47;;;;;;;;;;;;;;;;;;2074998;28;19914;-85
2021/12/17 08:53:47;;;;;;;;;;;;;;;;;;2074947;28;19914;-85
2021/12/17 08:54:48;;;;;;;;;;;;;;;;;;2065914;28;19960;-85
2021/12/17 08:55:48;;;;;;;;;;;;;;;;;;2065783;28;20072;-86
2021/12/17 08:56:49;;;;;;;;;;;;;;;;;;2066309;28;20386;-84
2021/12/17 08:57:49;;;;;;;;;;;;;;;;;;2066475;28;19914;-85
2021/12/17 08:58:51;;;;;;;;;;;;;;;;;;2066984;28;20263;-86
2021/12/17 09:00:04;;;;;;;;;;;;;;;;;;2066558;28;19914;-83
2021/12/17 09:01:05;;;;;;;;;;;;;;;;;;2068109;28;19914;-88
2021/12/17 09:02:05;;;;;;;;;;;;;;;;;;2073926;28;19949;-83
2021/12/17 09:03:09;;;;;;;;;;;;;;;;;;2065660;28;19914;-82
2021/12/17 09:04:10;;;;;;;;;;;;;;;;;;2066357;28;19918;-81
2021/12/17 09:05:12;;;;;;;;;;;;;;;;;;2074384;28;19921;-84
2021/12/17 09:06:16;;;;;;;;;;;;;;;;;;2074062;28;19913;-81
2021/12/17 09:07:17;;;;;;;;;;;;;;;;;;2074432;28;20102;-84
2021/12/17 09:08:17;;;;;;;;;;;;;;;;;;2074508;28;20251;-85
2021/12/17 09:09:20;;;;;;;;;;;;;;;;;;2074243;28;20011;-84
2021/12/17 09:10:22;;;;;;;;;;;;;;;;;;2073834;28;19924;-83
2021/12/17 09:11:23;;;;;;;;;;;;;;;;;;2074050;28;19913;-82
2021/12/17 09:12:23;;;;;;;;;;;;;;;;;;2074453;28;19914;-82
2021/12/17 09:13:27;;;;;;;;;;;;;;;;;;2073875;28;19918;-84
2021/12/17 09:14:28;;;;;;;;;;;;;;;;;;2065268;28;19984;-84
2021/12/17 09:15:28;;;;;;;;;;;;;;;;;;2065286;28;20335;-85
2021/12/17 09:16:29;;;;;;;;;;;;;;;;;;2073849;28;19913;-87
2021/12/17 09:17:29;;;;;;;;;;;;;;;;;;2074231;28;20469;-85
2021/12/17 09:18:29;;;;;;;;;;;;;;;;;;2074336;28;19913;-85
2021/12/17 09:19:30;;;;;;;;;;;;;;;;;;2065723;28;19941;-84
2021/12/17 09:20:31;;;;;;;;;;;;;;;;;;2065600;28;19936;-85
2021/12/17 09:21:34;;;;;;;;;;;;;;;;;;2073800;28;19929;-85
2021/12/17 09:22:34;;;;;;;;;;;;;;;;;;2073546;28;19984;-85
2021/12/17 09:23:34;;;;;;;;;;;;;;;;;;2073359;28;19917;-83
2021/12/17 09:24:35;;;;;;;;;;;;;;;;;;2073798;28;19914;-84
2021/12/17 09:25:35;;;;;;;;;;;;;;;;;;2074116;28;19988;-85
2021/12/17 09:26:35;;;;;;;;;;;;;;;;;;2073150;28;19913;-83
2021/12/17 09:27:36;;;;;;;;;;;;;;;;;;2073811;28;20350;-85
2021/12/17 09:28:37;;;;;;;;;;;;;;;;;;2074187;28;20358;-83
2021/12/17 09:29:37;;;;;;;;;;;;;;;;;;2065870;28;20018;-82
2021/12/17 09:30:37;;;;;;;;;;;;;;;;;;2067301;28;19928;-83
2021/12/17 09:31:38;;;;;;;;;;;;;;;;;;2065651;28;19957;-86
2021/12/17 09:32:39;;;;;;;;;;;;;;;;;;2074159;28;20365;-85
2021/12/17 09:33:41;;;;;;;;;;;;;;;;;;2065532;28;20012;-85
2021/12/17 09:34:41;;;;;;;;;;;;;;;;;;2065708;28;20005;-84
2021/12/17 09:35:42;;;;;;;;;;;;;;;;;;2065326;28;19922;-85
2021/12/17 09:36:42;;;;;;;;;;;;;;;;;;2065650;28;20337;-84
2021/12/17 09:37:42;;;;;;;;;;;;;;;;;;2073706;28;19913;-85
2021/12/17 09:38:46;;;;;;;;;;;;;;;;;;2065194;28;20339;-85
2021/12/17 09:39:46;;;;;;;;;;;;;;;;;;2065313;28;19952;-84
2021/12/17 09:40:46;;;;;;;;;;;;;;;;;;2073731;28;20295;-84
2021/12/17 09:41:50;;;;;;;;;;;;;;;;;;2073671;28;19913;-85
2021/12/17 09:42:50;;;;;;;;;;;;;;;;;;2074112;28;19924;-85
2021/12/17 09:43:51;;;;;;;;;;;;;;;;;;2074216;28;19914;-87
2021/12/17 09:44:51;;;;;;;;;;;;;;;;;;2074120;28;20292;-86
2021/12/17 09:45:51;;;;;;;;;;;;;;;;;;2074077;28;19921;-84
2021/12/17 09:46:57;;;;;;;;;;;;;;;;;;2074015;28;20301;-86
2021/12/17 09:47:57;;;;;;;;;;;;;;;;;;2074005;28;20350;-85
2021/12/17 09:48:58;;;;;;;;;;;;;;;;;;2074058;28;20026;-83
2021/12/17 09:49:58;;;;;;;;;;;;;;;;;;2074057;28;19913;-85